Terminal Aerodrome Forecast
Issued by NWS Upton, NY

Home | Current Version | Previous Version | Text Only | Print | Product List | Glossary On
Versions: 1 2 3 4 5 6 7 8 9 10 11 12 13 14 15 16 17 18 19 20 21 22 23 24 25 26 27 28 29 30 31
000
FTUS41 KOKX 271935 AAA
TAFEWR
TAF AMD
KEWR 271935Z 2720/2824 VRB05KT P6SM BKN050
     FM272030 14008KT P6SM BKN050
     FM280100 VRB04KT P6SM BKN040
     FM281000 VRB05KT P6SM BKN020
     FM281500 13008KT P6SM SCT025 BKN035
     FM281800 13008KT P6SM SCT035 SCT250=

USA.gov is the U.S. government's official web portal to all federal, state and local government web resources and services.